This is the latest recevied weather packets stored in our database for station/object KK7MLS-13. If no packets are shown the sender has not sent any weather packets the latest 10 day(s).
| Time | Temp. | Humidity | Pressure | Rain* | Wind** | Luminosity | Snow |
|---|---|---|---|---|---|---|---|
| 1787879324 | 29.44° C | 39% | 1017.3 hPa | 0 mm | - | 138 W/m² | - |
| 1787879020 | 29.44° C | 39% | 1017.2 hPa | 0 mm | - | 125 W/m² | - |
| 1787878720 | 28.89° C | 41% | 1017.3 hPa | 0 mm | - | 188 W/m² | - |
| 1787878419 | 28.33° C | 41% | 1017.2 hPa | 0 mm | - | 182 W/m² | - |
| 1787878115 | 27.78° C | 43% | 1017.4 hPa | 0 mm | - | 194 W/m² | - |
| 1787877811 | 27.78° C | 41% | 1017.3 hPa | 0 mm | - | 205 W/m² | - |
| 1787877506 | 27.78° C | 42% | 1017.3 hPa | 0 mm | - | 223 W/m² | - |
| 1787877202 | 27.78° C | 42% | 1017.3 hPa | 0 mm | - | 250 W/m² | - |
| 1787876901 | 28.33° C | 40% | 1017.4 hPa | 0 mm | - | 255 W/m² | - |
| 1787876597 | 27.78° C | 41% | 1017.5 hPa | 0 mm | - | 274 W/m² | - |
| 1787876296 | 27.22° C | 42% | 1017.2 hPa | 0 mm | - | 301 W/m² | - |
| 1787875995 | 27.22° C | 43% | 1017.4 hPa | 0 mm | - | 336 W/m² | - |
| 1787875691 | 28.89° C | 39% | 1017.4 hPa | 0 mm | - | 86 W/m² | - |
| 1787875389 | 29.44° C | 38% | 1017.5 hPa | 0 mm | - | 48 W/m² | - |
| 1787875088 | 28.89° C | 40% | 1017.7 hPa | 0 mm | - | 332 W/m² | - |
| 1787874784 | 27.22° C | 43% | 1017.5 hPa | 0 mm | - | 362 W/m² | - |
| 1787874481 | 25° C | 48% | 1017.7 hPa | 0 mm | - | 406 W/m² | - |
| 1787874177 | 24.44° C | 50% | 1017.6 hPa | 0 mm | - | 162 W/m² | - |
| 1787873872 | 24.44° C | 50% | 1017.9 hPa | 0 mm | - | 89 W/m² | - |
| 1787873571 | 24.44° C | 48% | 1017.9 hPa | 0 mm | - | 79 W/m² | - |
| 1787873267 | 25° C | 47% | 1017.9 hPa | 0 mm | - | 73 W/m² | - |
| 1787872965 | 25.56° C | 46% | 1017.8 hPa | 0 mm | - | 58 W/m² | - |
| 1787872661 | 26.67° C | 45% | 1017.9 hPa | 0 mm | - | 58 W/m² | - |
| 1787872356 | 26.67° C | 45% | 1018 hPa | 0 mm | - | 67 W/m² | - |
| 1787872051 | 26.67° C | 45% | 1017.9 hPa | 0 mm | - | 515 W/m² | - |
* Rain latest hour (hover to see other rain measurements)
** Current wind speed in m/s (hover to see current wind gust speed)